createdAt,value
2022-10-30T00:00:44.794Z,15.30
2022-10-30T00:03:14.517Z,15.20
2022-10-30T00:05:44.679Z,15.10
2022-10-30T00:08:14.547Z,15.00
2022-10-30T00:10:44.263Z,15.00
2022-10-30T00:13:13.962Z,15.00
2022-10-30T00:15:49.651Z,14.90
2022-10-30T00:18:17.862Z,14.90
2022-10-30T00:20:46.264Z,14.80
2022-10-30T00:23:14.574Z,14.70
2022-10-30T00:25:42.818Z,14.70
2022-10-30T00:28:11.030Z,14.70
2022-10-30T00:30:39.538Z,14.60
2022-10-30T00:33:09.224Z,14.50
2022-10-30T00:35:37.505Z,14.50
2022-10-30T00:38:05.856Z,14.50
2022-10-30T00:40:34.102Z,14.40
2022-10-30T00:43:02.286Z,14.30
2022-10-30T00:45:30.573Z,14.20
2022-10-30T00:48:02.758Z,14.20
2022-10-30T00:50:36.128Z,14.10
2022-10-30T00:53:08.563Z,14.10
2022-10-30T00:55:39.173Z,14.10
2022-10-30T00:58:11.516Z,14.10
2022-10-30T01:00:42.740Z,14.00
2022-10-30T01:03:11.357Z,14.00
2022-10-30T01:05:41.559Z,14.00
2022-10-30T01:08:09.744Z,14.00
2022-10-30T01:10:38.771Z,14.00
2022-10-30T01:13:08.171Z,13.90
2022-10-30T01:15:41.272Z,13.90
2022-10-30T01:18:31.775Z,13.90
2022-10-30T01:21:13.234Z,13.90
2022-10-30T01:23:54.739Z,13.90
2022-10-30T01:26:33.226Z,13.90
2022-10-30T01:29:24.026Z,13.90
2022-10-30T01:32:08.594Z,13.90
2022-10-30T01:34:48.146Z,13.90
2022-10-30T01:37:23.943Z,13.90
2022-10-30T01:39:53.623Z,13.80
2022-10-30T01:42:45.209Z,13.90
2022-10-30T01:45:23.047Z,13.90
2022-10-30T01:48:09.004Z,13.90
2022-10-30T01:50:52.483Z,13.90
2022-10-30T01:53:36.519Z,13.90
2022-10-30T01:56:18.773Z,13.90
2022-10-30T01:58:56.176Z,13.90
2022-10-30T02:01:26.631Z,14.00
2022-10-30T02:03:55.202Z,14.00
2022-10-30T02:06:24.530Z,14.00
2022-10-30T02:08:56.458Z,14.00
2022-10-30T02:11:26.029Z,14.00
2022-10-30T02:13:57.100Z,14.00
2022-10-30T02:16:25.470Z,14.00
2022-10-30T02:18:53.742Z,14.10
2022-10-30T02:21:23.431Z,14.00
2022-10-30T02:23:51.928Z,14.00
2022-10-30T02:26:20.240Z,14.00
2022-10-30T02:28:48.508Z,14.00
2022-10-30T02:31:16.937Z,14.00
2022-10-30T02:33:46.940Z,14.00
2022-10-30T02:36:16.176Z,14.00
2022-10-30T02:38:46.035Z,14.00
2022-10-30T02:41:14.622Z,14.10
2022-10-30T02:43:43.571Z,14.10
2022-10-30T02:46:11.769Z,14.10
2022-10-30T02:48:40.050Z,14.20
2022-10-30T02:51:09.951Z,14.10
2022-10-30T02:53:40.070Z,14.10
2022-10-30T02:56:13.763Z,14.20
2022-10-30T02:58:43.637Z,14.20
2022-10-30T03:01:14.094Z,14.20
2022-10-30T03:03:43.281Z,14.30
2022-10-30T03:06:15.476Z,14.30
2022-10-30T03:08:44.677Z,14.20
2022-10-30T03:11:16.194Z,14.20
2022-10-30T03:13:45.839Z,14.20
2022-10-30T03:16:16.356Z,14.20
2022-10-30T03:18:46.131Z,14.20
2022-10-30T03:21:16.155Z,14.20
2022-10-30T03:23:46.032Z,14.20
2022-10-30T03:26:15.639Z,14.10
2022-10-30T03:28:50.529Z,14.20
2022-10-30T03:31:20.415Z,14.10
2022-10-30T03:33:54.284Z,14.10
2022-10-30T03:36:23.237Z,14.10
2022-10-30T03:38:51.539Z,14.10
2022-10-30T03:41:22.947Z,14.10
2022-10-30T03:43:51.734Z,14.00
2022-10-30T03:46:19.975Z,14.00
2022-10-30T03:48:50.922Z,14.00
2022-10-30T03:51:19.173Z,13.90
2022-10-30T03:53:48.361Z,13.90
2022-10-30T03:56:16.656Z,13.90
2022-10-30T03:58:50.583Z,13.80
2022-10-30T04:01:22.751Z,13.80
2022-10-30T04:03:56.456Z,13.80
2022-10-30T04:06:26.575Z,13.80
2022-10-30T04:08:55.872Z,13.70
2022-10-30T04:11:25.359Z,13.70
2022-10-30T04:13:54.999Z,13.60
2022-10-30T04:16:23.841Z,13.60
2022-10-30T04:18:52.339Z,13.60
2022-10-30T04:21:20.575Z,13.60
2022-10-30T04:23:50.534Z,13.50
2022-10-30T04:26:22.424Z,13.50
2022-10-30T04:28:50.973Z,13.50
2022-10-30T04:31:20.513Z,13.50
2022-10-30T04:33:48.729Z,13.50
2022-10-30T04:36:18.071Z,13.50
2022-10-30T04:38:47.350Z,13.40
2022-10-30T04:41:15.641Z,13.40
2022-10-30T04:43:59.403Z,13.40
2022-10-30T04:46:34.774Z,13.30
2022-10-30T04:49:09.312Z,13.30
2022-10-30T04:51:37.627Z,13.30
2022-10-30T04:54:07.725Z,13.30
2022-10-30T04:56:39.306Z,13.30
2022-10-30T04:59:07.561Z,13.20
2022-10-30T05:01:37.503Z,13.20
2022-10-30T05:04:07.885Z,13.20
2022-10-30T05:06:36.328Z,13.20
2022-10-30T05:09:04.789Z,13.10
2022-10-30T05:11:39.431Z,13.10
2022-10-30T05:14:09.523Z,13.10
2022-10-30T05:16:40.562Z,13.00
2022-10-30T05:19:09.475Z,13.00
2022-10-30T05:21:38.120Z,13.00
2022-10-30T05:24:07.101Z,12.90
2022-10-30T05:26:44.303Z,12.90
2022-10-30T05:29:13.542Z,12.90
2022-10-30T05:31:43.384Z,12.80
2022-10-30T05:34:17.554Z,12.90
2022-10-30T05:36:48.511Z,12.90
2022-10-30T05:39:17.369Z,12.80
2022-10-30T05:41:49.059Z,12.80
2022-10-30T05:44:34.311Z,12.70
2022-10-30T05:47:09.191Z,12.70
2022-10-30T05:49:37.512Z,12.60
2022-10-30T05:52:11.132Z,12.50
2022-10-30T05:54:39.403Z,12.50
2022-10-30T05:57:16.094Z,12.40
2022-10-30T05:59:45.465Z,12.40
2022-10-30T06:02:15.081Z,12.40
2022-10-30T06:04:43.576Z,12.40
2022-10-30T06:07:14.571Z,12.30
2022-10-30T06:09:42.928Z,12.30
2022-10-30T06:12:29.520Z,12.20
2022-10-30T06:15:31.188Z,12.20
2022-10-30T06:18:01.586Z,12.20
2022-10-30T06:20:40.880Z,12.10
2022-10-30T06:23:27.938Z,12.10
2022-10-30T06:26:09.915Z,12.00
2022-10-30T06:28:52.354Z,12.00
2022-10-30T06:33:55.292Z,12.00
2022-10-30T06:36:23.811Z,12.00
2022-10-30T06:38:52.165Z,12.00
2022-10-30T06:41:29.066Z,12.00
2022-10-30T06:44:16.916Z,12.00
2022-10-30T06:46:45.312Z,12.00
2022-10-30T06:49:14.914Z,12.00
2022-10-30T06:51:43.720Z,12.00
2022-10-30T06:54:12.886Z,12.00
2022-10-30T06:56:41.113Z,12.00
2022-10-30T06:59:10.722Z,12.10
2022-10-30T07:01:47.565Z,12.10
2022-10-30T07:04:19.695Z,12.10
2022-10-30T07:06:48.124Z,12.20
2022-10-30T07:09:16.405Z,12.20
2022-10-30T07:11:45.929Z,12.30
2022-10-30T07:14:26.021Z,12.30
2022-10-30T07:17:17.217Z,12.30
2022-10-30T07:19:53.330Z,12.40
2022-10-30T07:22:21.689Z,12.50
2022-10-30T07:24:53.558Z,12.50
2022-10-30T07:27:30.829Z,12.60
2022-10-30T07:30:12.943Z,12.70
2022-10-30T07:33:12.077Z,12.80
2022-10-30T07:36:03.398Z,12.90
2022-10-30T07:38:48.598Z,13.00
2022-10-30T07:41:28.689Z,13.10
2022-10-30T07:44:16.835Z,13.20
2022-10-30T07:47:05.520Z,13.30
2022-10-30T07:50:06.901Z,13.50
2022-10-30T07:52:36.897Z,13.60
2022-10-30T07:55:06.028Z,13.70
2022-10-30T07:57:49.649Z,13.90
2022-10-30T08:00:52.995Z,14.00
2022-10-30T08:03:29.688Z,14.30
2022-10-30T08:06:12.858Z,14.40
2022-10-30T08:08:43.575Z,14.60
2022-10-30T08:11:27.683Z,14.80
2022-10-30T08:13:56.566Z,15.00
2022-10-30T08:16:25.419Z,15.20
2022-10-30T08:18:53.963Z,15.30
2022-10-30T08:21:26.123Z,15.30
2022-10-30T08:24:15.993Z,15.50
2022-10-30T08:26:47.676Z,15.70
2022-10-30T08:29:16.086Z,15.90
2022-10-30T08:31:45.839Z,15.90
2022-10-30T08:34:35.001Z,16.10
2022-10-30T08:37:07.900Z,16.30
2022-10-30T08:39:38.801Z,16.50
2022-10-30T08:42:25.056Z,16.70
2022-10-30T08:44:57.310Z,16.90
2022-10-30T08:47:28.276Z,17.10
2022-10-30T08:49:57.644Z,17.20
2022-10-30T08:52:29.575Z,17.30
2022-10-30T08:54:59.763Z,17.40
2022-10-30T08:57:28.531Z,17.70
2022-10-30T08:59:58.649Z,17.80
2022-10-30T09:02:52.530Z,18.10
2022-10-30T09:05:39.245Z,18.30
2022-10-30T09:08:19.695Z,18.40
2022-10-30T09:11:07.627Z,18.60
2022-10-30T09:13:36.170Z,18.70
2022-10-30T09:16:06.715Z,18.80
2022-10-30T09:18:37.600Z,18.70
2022-10-30T09:21:07.051Z,18.70
2022-10-30T09:23:47.356Z,18.80
2022-10-30T09:26:35.382Z,18.90
2022-10-30T09:29:11.619Z,18.90
2022-10-30T09:31:45.666Z,18.90
2022-10-30T09:34:18.477Z,18.90
2022-10-30T09:36:51.748Z,18.80
2022-10-30T09:39:20.576Z,18.80
2022-10-30T09:42:18.785Z,18.80
2022-10-30T09:48:02.369Z,18.80
2022-10-30T09:50:46.243Z,18.70
2022-10-30T09:53:21.322Z,18.70
2022-10-30T09:55:58.709Z,18.70
2022-10-30T09:58:35.364Z,18.60
2022-10-30T10:01:16.750Z,18.70
2022-10-30T10:04:02.132Z,18.70
2022-10-30T10:06:45.831Z,18.80
2022-10-30T10:09:21.786Z,19.00
2022-10-30T10:12:34.661Z,19.10
2022-10-30T10:15:12.339Z,19.30
2022-10-30T10:17:44.437Z,19.40
2022-10-30T10:20:18.733Z,19.50
2022-10-30T10:22:50.536Z,19.60
2022-10-30T10:25:20.792Z,19.80
2022-10-30T10:28:07.929Z,19.90
2022-10-30T10:30:47.816Z,20.00
2022-10-30T10:33:46.335Z,20.00
2022-10-30T10:36:28.197Z,20.10
2022-10-30T10:39:21.208Z,20.30
2022-10-30T10:41:58.887Z,20.40
2022-10-30T10:44:36.446Z,20.50
2022-10-30T10:47:30.999Z,20.60
2022-10-30T10:50:14.789Z,20.70
2022-10-30T10:52:48.651Z,20.90
2022-10-30T10:55:19.919Z,21.00
2022-10-30T10:57:49.086Z,21.10
2022-10-30T11:00:19.866Z,21.20
2022-10-30T11:02:58.337Z,21.30
2022-10-30T11:05:33.442Z,21.40
2022-10-30T11:08:12.235Z,21.50
2022-10-30T11:10:40.531Z,21.60
2022-10-30T11:13:10.763Z,21.80
2022-10-30T11:15:48.736Z,21.90
2022-10-30T11:18:18.377Z,21.90
2022-10-30T11:20:56.846Z,22.10
2022-10-30T11:23:38.638Z,22.20
2022-10-30T11:26:31.523Z,22.30
2022-10-30T11:29:04.939Z,22.50
2022-10-30T11:31:40.326Z,22.80
2022-10-30T11:34:29.981Z,23.00
2022-10-30T11:36:58.398Z,23.20
2022-10-30T11:39:28.245Z,23.50
2022-10-30T11:41:59.890Z,23.60
2022-10-30T11:44:32.382Z,23.60
2022-10-30T11:47:01.117Z,23.70
2022-10-30T11:49:40.714Z,23.60
2022-10-30T11:52:10.519Z,23.70
2022-10-30T11:54:44.768Z,23.80
2022-10-30T11:57:22.097Z,23.90
2022-10-30T11:59:52.588Z,24.00
2022-10-30T12:02:28.212Z,24.00
2022-10-30T12:05:02.719Z,24.10
2022-10-30T12:07:33.185Z,24.10
2022-10-30T12:10:03.098Z,24.10
2022-10-30T12:12:42.775Z,24.10
2022-10-30T12:15:21.374Z,24.10
2022-10-30T12:17:53.561Z,24.20
2022-10-30T12:20:23.303Z,24.20
2022-10-30T12:22:51.679Z,24.20
2022-10-30T12:25:25.217Z,24.20
2022-10-30T12:28:00.688Z,24.00
2022-10-30T12:30:32.702Z,24.00
2022-10-30T12:33:07.187Z,23.80
2022-10-30T12:35:45.535Z,23.80
2022-10-30T12:38:18.562Z,23.80
2022-10-30T12:40:56.829Z,23.80
2022-10-30T12:43:28.150Z,23.80
2022-10-30T12:46:04.611Z,23.90
2022-10-30T12:48:38.603Z,23.90
2022-10-30T12:51:21.384Z,24.10
2022-10-30T12:53:59.309Z,24.20
2022-10-30T12:56:32.332Z,24.30
2022-10-30T12:59:13.424Z,24.40
2022-10-30T13:01:48.869Z,24.40
2022-10-30T13:04:19.599Z,24.40
2022-10-30T13:06:54.202Z,24.40
2022-10-30T13:09:27.882Z,24.40
2022-10-30T13:12:03.473Z,24.30
2022-10-30T13:14:36.301Z,24.30
2022-10-30T13:17:04.754Z,24.20
2022-10-30T13:19:33.094Z,24.10
2022-10-30T13:22:08.974Z,24.00
2022-10-30T13:24:47.498Z,24.00
2022-10-30T13:27:22.319Z,24.00
2022-10-30T13:29:57.819Z,24.10
2022-10-30T13:32:40.007Z,24.10
2022-10-30T13:35:21.227Z,24.10
2022-10-30T13:37:58.755Z,24.10
2022-10-30T13:40:33.150Z,24.20
2022-10-30T13:43:15.672Z,24.30
2022-10-30T13:46:09.278Z,24.40
2022-10-30T13:49:03.596Z,24.50
2022-10-30T13:51:38.383Z,24.60
2022-10-30T13:54:15.609Z,24.40
2022-10-30T13:56:46.965Z,24.30
2022-10-30T14:00:02.999Z,24.10
2022-10-30T14:03:07.219Z,23.90
2022-10-30T14:05:43.304Z,23.80
2022-10-30T14:08:21.934Z,23.70
2022-10-30T14:10:57.688Z,23.60
2022-10-30T14:13:30.716Z,23.40
2022-10-30T14:16:02.815Z,23.20
2022-10-30T14:18:44.247Z,23.00
2022-10-30T14:21:37.058Z,22.80
2022-10-30T14:24:12.239Z,22.60
2022-10-30T14:26:49.951Z,22.50
2022-10-30T14:29:45.419Z,22.20
2022-10-30T14:32:47.040Z,22.20
2022-10-30T14:35:39.479Z,22.10
2022-10-30T14:38:31.432Z,22.10
2022-10-30T14:41:38.353Z,22.10
2022-10-30T14:44:41.229Z,22.20
2022-10-30T14:47:47.367Z,22.30
2022-10-30T14:50:23.584Z,22.50
2022-10-30T14:53:06.575Z,22.50
2022-10-30T14:55:39.232Z,22.60
2022-10-30T14:58:20.333Z,22.40
2022-10-30T15:00:51.022Z,22.40
2022-10-30T15:03:32.963Z,22.30
2022-10-30T15:06:07.330Z,22.20
2022-10-30T15:09:05.115Z,22.10
2022-10-30T15:11:54.200Z,22.00
2022-10-30T15:14:40.508Z,22.00
2022-10-30T15:17:24.009Z,21.80
2022-10-30T15:19:52.398Z,21.60
2022-10-30T15:22:22.812Z,21.50
2022-10-30T15:24:52.145Z,21.50
2022-10-30T15:27:22.814Z,21.40
2022-10-30T15:29:53.849Z,21.30
2022-10-30T15:32:25.138Z,21.30
2022-10-30T15:34:55.408Z,21.10
2022-10-30T15:37:23.895Z,21.10
2022-10-30T15:40:10.346Z,21.00
2022-10-30T15:42:39.499Z,21.00
2022-10-30T15:45:12.170Z,20.80
2022-10-30T15:47:47.551Z,20.70
2022-10-30T15:50:17.457Z,20.70
2022-10-30T15:52:45.721Z,20.60
2022-10-30T15:55:17.647Z,20.50
2022-10-30T15:58:02.974Z,20.50
2022-10-30T16:00:35.325Z,20.50
2022-10-30T16:03:07.030Z,20.40
2022-10-30T16:05:36.663Z,20.30
2022-10-30T16:08:11.069Z,20.30
2022-10-30T16:10:47.527Z,20.30
2022-10-30T16:13:19.046Z,20.10
2022-10-30T16:15:48.207Z,20.10
2022-10-30T16:18:21.755Z,20.10
2022-10-30T16:20:51.991Z,20.00
2022-10-30T16:23:21.253Z,19.90
2022-10-30T16:25:54.541Z,19.80
2022-10-30T16:28:29.019Z,19.70
2022-10-30T16:31:00.901Z,19.70
2022-10-30T16:33:32.140Z,19.60
2022-10-30T16:36:03.160Z,19.40
2022-10-30T16:38:34.878Z,19.30
2022-10-30T16:41:05.196Z,19.20
2022-10-30T16:43:35.839Z,19.10
2022-10-30T16:46:35.126Z,19.00
2022-10-30T16:49:08.374Z,18.90
2022-10-30T16:51:39.974Z,18.80
2022-10-30T16:54:17.668Z,18.80
2022-10-30T16:56:47.464Z,18.70
2022-10-30T16:59:21.227Z,18.50
2022-10-30T17:01:55.577Z,18.40
2022-10-30T17:04:26.096Z,18.30
2022-10-30T17:07:05.975Z,18.20
2022-10-30T17:09:38.265Z,18.20
2022-10-30T17:12:14.130Z,18.10
2022-10-30T17:14:50.503Z,18.00
2022-10-30T17:17:25.274Z,17.90
2022-10-30T17:19:59.444Z,17.90
2022-10-30T17:22:28.640Z,17.80
2022-10-30T17:24:57.418Z,17.80
2022-10-30T17:27:46.812Z,17.80
2022-10-30T17:30:34.511Z,17.70
2022-10-30T17:33:04.547Z,17.60
2022-10-30T17:35:35.488Z,17.60
2022-10-30T17:38:03.931Z,17.50
2022-10-30T17:40:32.410Z,17.50
2022-10-30T17:43:00.594Z,17.40
2022-10-30T17:45:28.916Z,17.40
2022-10-30T17:47:57.579Z,17.30
2022-10-30T17:50:26.024Z,17.20
2022-10-30T17:52:55.612Z,17.20
2022-10-30T17:55:29.166Z,17.10
2022-10-30T17:57:57.445Z,17.00
2022-10-30T18:00:25.747Z,17.00
2022-10-30T18:02:53.922Z,16.90
2022-10-30T18:05:26.461Z,16.90
2022-10-30T18:07:56.194Z,16.90
2022-10-30T18:10:24.527Z,16.90
2022-10-30T18:12:52.726Z,16.90
2022-10-30T18:15:36.475Z,16.90
2022-10-30T18:18:05.188Z,16.80
2022-10-30T18:20:33.453Z,16.80
2022-10-30T18:23:03.651Z,16.80
2022-10-30T18:25:35.689Z,16.70
2022-10-30T18:28:04.090Z,16.60
2022-10-30T18:30:32.552Z,16.60
2022-10-30T18:33:01.157Z,16.50
2022-10-30T18:35:33.993Z,16.40
2022-10-30T18:38:04.451Z,16.40
2022-10-30T18:40:33.479Z,16.30
2022-10-30T18:43:02.216Z,16.20
2022-10-30T18:45:37.206Z,16.10
2022-10-30T18:48:06.160Z,16.10
2022-10-30T18:50:34.368Z,16.00
2022-10-30T18:53:05.287Z,15.90
2022-10-30T18:55:35.787Z,15.80
2022-10-30T18:58:05.092Z,15.70
2022-10-30T19:00:44.896Z,15.70
2022-10-30T19:03:13.824Z,15.60
2022-10-30T19:05:45.835Z,15.60
2022-10-30T19:08:15.654Z,15.50
2022-10-30T19:10:46.045Z,15.40
2022-10-30T19:13:17.639Z,15.40
2022-10-30T19:15:48.169Z,15.40
2022-10-30T19:18:17.056Z,15.30
2022-10-30T19:21:03.335Z,15.30
2022-10-30T19:23:34.143Z,15.30
2022-10-30T19:26:02.510Z,15.20
2022-10-30T19:28:31.078Z,15.20
2022-10-30T19:30:59.548Z,15.20
2022-10-30T19:33:27.935Z,15.10
2022-10-30T19:35:56.918Z,15.10
2022-10-30T19:38:25.632Z,15.10
2022-10-30T19:40:55.208Z,15.10
2022-10-30T19:43:23.544Z,15.00
2022-10-30T19:45:55.634Z,15.00
2022-10-30T19:48:55.640Z,15.00
2022-10-30T19:51:13.121Z,15.00
2022-10-30T19:53:41.704Z,15.00
2022-10-30T19:56:13.854Z,14.90
2022-10-30T19:58:42.074Z,14.90
2022-10-30T20:01:12.082Z,14.80
2022-10-30T20:03:40.407Z,14.80
2022-10-30T20:06:11.554Z,14.80
2022-10-30T20:08:40.088Z,14.80
2022-10-30T20:11:08.588Z,14.70
2022-10-30T20:13:38.195Z,14.80
2022-10-30T20:16:07.207Z,14.80
2022-10-30T20:18:37.156Z,14.70
2022-10-30T20:21:08.745Z,14.70
2022-10-30T20:23:37.382Z,14.70
2022-10-30T20:26:08.557Z,14.70
2022-10-30T20:28:40.691Z,14.70
2022-10-30T20:31:11.876Z,14.70
2022-10-30T20:33:40.206Z,14.60
2022-10-30T20:36:08.860Z,14.60
2022-10-30T20:38:37.168Z,14.60
2022-10-30T20:41:06.457Z,14.60
2022-10-30T20:43:37.558Z,14.70
2022-10-30T20:46:09.267Z,14.70
2022-10-30T20:48:38.274Z,14.70
2022-10-30T20:51:06.869Z,14.70
2022-10-30T20:53:35.629Z,14.70
2022-10-30T20:56:04.410Z,14.70
2022-10-30T20:58:32.575Z,14.60
2022-10-30T21:01:03.240Z,14.60
2022-10-30T21:03:31.498Z,14.50
2022-10-30T21:06:02.011Z,14.50
2022-10-30T21:08:31.753Z,14.50
2022-10-30T21:11:00.822Z,14.50
2022-10-30T21:13:29.600Z,14.50
2022-10-30T21:16:03.588Z,14.50
2022-10-30T21:18:32.470Z,14.50
2022-10-30T21:21:02.431Z,14.50
2022-10-30T21:23:30.723Z,14.40
2022-10-30T21:26:02.155Z,14.50
2022-10-30T21:28:30.354Z,14.50
2022-10-30T21:31:03.261Z,14.60
2022-10-30T21:33:32.200Z,14.60
2022-10-30T21:36:10.594Z,14.60
2022-10-30T21:38:41.898Z,14.60
2022-10-30T21:41:10.342Z,14.60
2022-10-30T21:43:39.590Z,14.60
2022-10-30T21:46:09.907Z,14.60
2022-10-30T21:48:38.255Z,14.70
2022-10-30T21:51:08.281Z,14.70
2022-10-30T21:53:36.505Z,14.70
2022-10-30T21:56:07.008Z,14.70
2022-10-30T21:58:35.246Z,14.80
2022-10-30T22:01:05.278Z,14.80
2022-10-30T22:03:35.283Z,14.80
2022-10-30T22:06:07.861Z,14.70
2022-10-30T22:08:36.320Z,14.70
2022-10-30T22:11:05.971Z,14.70
2022-10-30T22:13:34.668Z,14.60
2022-10-30T22:16:03.328Z,14.50
2022-10-30T22:18:31.827Z,14.40
2022-10-30T22:21:02.338Z,14.40
2022-10-30T22:23:31.066Z,14.40
2022-10-30T22:26:01.528Z,14.30
2022-10-30T22:28:31.844Z,14.30
2022-10-30T22:31:03.819Z,14.20
2022-10-30T22:33:32.808Z,14.10
2022-10-30T22:36:07.428Z,14.10
2022-10-30T22:38:36.182Z,14.00
2022-10-30T22:41:12.193Z,14.00
2022-10-30T22:43:40.916Z,14.00
2022-10-30T22:46:09.747Z,14.00
2022-10-30T22:48:38.183Z,13.90
2022-10-30T22:51:13.487Z,13.90
2022-10-30T22:53:45.343Z,13.90
2022-10-30T22:56:15.889Z,13.90
2022-10-30T22:58:44.875Z,13.80
2022-10-30T23:01:15.085Z,13.80
2022-10-30T23:03:43.719Z,13.80
2022-10-30T23:06:14.043Z,13.80
2022-10-30T23:08:42.761Z,13.70
2022-10-30T23:11:11.220Z,13.80
2022-10-30T23:13:40.434Z,13.80
2022-10-30T23:16:13.672Z,13.90
2022-10-30T23:18:42.532Z,13.90
2022-10-30T23:21:14.743Z,13.90
2022-10-30T23:23:44.046Z,14.00
2022-10-30T23:26:16.625Z,14.00
2022-10-30T23:28:45.463Z,14.00
2022-10-30T23:31:19.489Z,14.00
2022-10-30T23:33:48.638Z,14.00
2022-10-30T23:36:19.058Z,13.90
2022-10-30T23:38:52.867Z,13.90
2022-10-30T23:41:21.413Z,14.00
2022-10-30T23:43:49.767Z,14.00
2022-10-30T23:46:17.995Z,14.00
2022-10-30T23:48:46.204Z,14.00
2022-10-30T23:51:14.834Z,14.00
2022-10-30T23:53:44.454Z,14.00
2022-10-30T23:56:12.751Z,14.00
2022-10-30T23:58:43.962Z,14.00
